createdAt,value
2019-01-10T00:00:12.479Z,0.00
2019-01-10T00:01:12.464Z,0.00
2019-01-10T00:02:12.455Z,0.00
2019-01-10T00:03:12.441Z,0.00
2019-01-10T00:04:12.455Z,0.00
2019-01-10T00:05:12.422Z,0.00
2019-01-10T00:06:12.413Z,0.00
2019-01-10T00:07:12.398Z,0.00
2019-01-10T00:08:12.388Z,0.00
2019-01-10T00:09:12.399Z,0.00
2019-01-10T00:10:13.960Z,0.00
2019-01-10T00:11:12.353Z,0.00
2019-01-10T00:12:12.342Z,0.00
2019-01-10T00:13:12.332Z,0.00
2019-01-10T00:14:12.354Z,0.00
2019-01-10T00:15:12.309Z,0.00
2019-01-10T00:16:12.298Z,0.00
2019-01-10T00:17:12.287Z,0.00
2019-01-10T00:18:12.276Z,0.00
2019-01-10T00:19:12.265Z,0.00
2019-01-10T00:20:12.277Z,0.00
2019-01-10T00:21:12.242Z,0.00
2019-01-10T00:22:12.233Z,0.00
2019-01-10T00:23:12.247Z,0.00
2019-01-10T00:24:12.209Z,0.00
2019-01-10T00:25:12.234Z,0.00
2019-01-10T00:26:12.193Z,0.00
2019-01-10T00:27:12.175Z,0.00
2019-01-10T00:28:12.164Z,0.00
2019-01-10T00:29:12.152Z,0.00
2019-01-10T00:30:12.185Z,0.00
2019-01-10T00:31:12.130Z,0.00
2019-01-10T00:32:12.121Z,0.00
2019-01-10T00:33:12.112Z,0.00
2019-01-10T00:34:12.097Z,0.00
2019-01-10T00:35:12.110Z,0.00
2019-01-10T00:36:12.076Z,0.00
2019-01-10T00:37:12.062Z,0.00
2019-01-10T00:38:12.053Z,0.00
2019-01-10T00:39:12.040Z,0.00
2019-01-10T00:40:12.052Z,0.00
2019-01-10T00:41:12.020Z,0.00
2019-01-10T00:42:12.006Z,0.00
2019-01-10T00:43:11.995Z,0.00
2019-01-10T00:44:11.986Z,0.00
2019-01-10T00:45:11.975Z,0.00
2019-01-10T00:46:11.988Z,0.00
2019-01-10T00:47:11.952Z,0.00
2019-01-10T00:48:11.939Z,0.00
2019-01-10T00:49:11.928Z,0.00
2019-01-10T00:50:11.917Z,0.00
2019-01-10T00:51:11.928Z,0.00
2019-01-10T00:52:11.894Z,0.00
2019-01-10T00:53:11.887Z,0.00
2019-01-10T00:54:11.876Z,0.00
2019-01-10T00:55:11.860Z,0.00
2019-01-10T00:56:11.875Z,0.00
2019-01-10T00:57:11.839Z,0.00
2019-01-10T00:58:11.828Z,0.00
2019-01-10T00:59:11.816Z,0.00
2019-01-10T01:00:11.805Z,0.00
2019-01-10T01:01:11.815Z,0.00
2019-01-10T01:02:11.785Z,0.00
2019-01-10T01:03:11.774Z,0.00
2019-01-10T01:04:11.760Z,0.00
2019-01-10T01:05:11.749Z,0.00
2019-01-10T01:06:11.743Z,0.00
2019-01-10T01:07:11.748Z,0.00
2019-01-10T01:08:11.716Z,0.00
2019-01-10T01:09:11.704Z,0.00
2019-01-10T01:10:11.696Z,0.00
2019-01-10T01:11:11.684Z,0.00
2019-01-10T01:12:11.693Z,0.00
2019-01-10T01:13:11.659Z,0.00
2019-01-10T01:14:11.648Z,0.00
2019-01-10T01:15:11.637Z,0.00
2019-01-10T01:16:11.625Z,0.00
2019-01-10T01:17:11.637Z,0.00
2019-01-10T01:18:11.604Z,0.00
2019-01-10T01:19:11.592Z,0.00
2019-01-10T01:20:11.581Z,0.00
2019-01-10T01:21:11.573Z,0.00
2019-01-10T01:22:11.580Z,0.00
2019-01-10T01:23:11.547Z,0.00
2019-01-10T01:24:11.537Z,0.00
2019-01-10T01:25:11.607Z,0.00
2019-01-10T01:26:11.514Z,0.00
2019-01-10T01:27:11.524Z,0.00
2019-01-10T01:28:11.493Z,0.00
2019-01-10T01:29:11.483Z,0.00
2019-01-10T01:30:11.468Z,0.00
2019-01-10T01:31:11.458Z,0.00
2019-01-10T01:32:11.447Z,0.00
2019-01-10T01:33:11.460Z,0.00
2019-01-10T01:34:11.425Z,0.00
2019-01-10T01:35:11.413Z,0.00
2019-01-10T01:36:11.405Z,0.00
2019-01-10T01:37:11.391Z,0.00
2019-01-10T01:38:11.402Z,0.00
2019-01-10T01:39:11.368Z,0.00
2019-01-10T01:40:11.357Z,0.00
2019-01-10T01:41:11.346Z,0.00
2019-01-10T01:42:11.334Z,0.00
2019-01-10T01:43:11.345Z,0.00
2019-01-10T01:44:11.320Z,0.00
2019-01-10T01:45:11.302Z,0.00
2019-01-10T01:46:11.291Z,0.00
2019-01-10T01:47:11.279Z,0.00
2019-01-10T01:48:11.293Z,0.00
2019-01-10T01:49:11.257Z,0.00
2019-01-10T01:50:11.245Z,0.00
2019-01-10T01:51:11.233Z,0.00
2019-01-10T01:52:11.230Z,0.00
2019-01-10T01:53:11.234Z,0.00
2019-01-10T01:54:11.201Z,0.00
2019-01-10T01:55:11.189Z,0.00
2019-01-10T01:56:11.180Z,0.00
2019-01-10T01:57:19.746Z,0.00
2019-01-10T01:58:11.179Z,0.00
2019-01-10T01:59:11.147Z,0.00
2019-01-10T02:00:11.134Z,0.00
2019-01-10T02:01:11.125Z,0.00
2019-01-10T02:02:11.115Z,0.00
2019-01-10T02:03:11.144Z,0.00
2019-01-10T02:04:11.090Z,0.00
2019-01-10T02:05:11.078Z,0.00
2019-01-10T02:06:11.073Z,0.00
2019-01-10T02:07:11.055Z,0.00
2019-01-10T02:08:11.044Z,0.00
2019-01-10T02:09:11.059Z,0.00
2019-01-10T02:10:11.082Z,0.00
2019-01-10T02:11:11.014Z,0.00
2019-01-10T02:12:11.003Z,0.00
2019-01-10T02:13:20.321Z,0.00
2019-01-10T02:14:11.094Z,0.00
2019-01-10T02:15:10.966Z,0.00
2019-01-10T02:16:10.958Z,0.00
2019-01-10T02:17:10.950Z,0.00
2019-01-10T02:18:10.932Z,0.00
2019-01-10T02:19:10.946Z,0.00
2019-01-10T02:20:10.912Z,0.00
2019-01-10T02:21:10.899Z,0.00
2019-01-10T02:22:10.892Z,0.00
2019-01-10T02:23:10.880Z,0.00
2019-01-10T02:24:10.866Z,0.00
2019-01-10T02:25:10.878Z,0.00
2019-01-10T02:26:10.844Z,0.00
2019-01-10T02:27:10.839Z,0.00
2019-01-10T02:28:10.820Z,0.00
2019-01-10T02:29:10.811Z,0.00
2019-01-10T02:30:10.825Z,0.00
2019-01-10T02:31:10.789Z,0.00
2019-01-10T02:32:10.790Z,0.00
2019-01-10T02:33:10.765Z,0.00
2019-01-10T02:34:10.760Z,0.00
2019-01-10T02:35:10.770Z,0.00
2019-01-10T02:36:10.737Z,0.00
2019-01-10T02:37:10.729Z,0.00
2019-01-10T02:38:10.714Z,0.00
2019-01-10T02:39:10.703Z,0.00
2019-01-10T02:40:10.709Z,0.00
2019-01-10T02:41:10.675Z,0.00
2019-01-10T02:42:10.664Z,0.00
2019-01-10T02:43:10.655Z,0.00
2019-01-10T02:44:10.644Z,0.00
2019-01-10T02:45:10.631Z,0.00
2019-01-10T02:46:10.644Z,0.00
2019-01-10T02:47:10.612Z,0.00
2019-01-10T02:48:10.599Z,0.00
2019-01-10T02:49:10.586Z,0.00
2019-01-10T02:50:10.581Z,0.00
2019-01-10T02:51:10.591Z,0.00
2019-01-10T02:52:10.557Z,0.00
2019-01-10T02:53:10.548Z,0.00
2019-01-10T02:54:10.530Z,0.00
2019-01-10T02:55:10.532Z,0.00
2019-01-10T02:56:10.535Z,0.00
2019-01-10T02:57:10.499Z,0.00
2019-01-10T02:58:10.487Z,0.00
2019-01-10T02:59:10.480Z,0.00
2019-01-10T03:00:10.466Z,0.00
2019-01-10T03:01:10.486Z,0.00
2019-01-10T03:02:10.441Z,0.00
2019-01-10T03:03:10.428Z,0.00
2019-01-10T03:04:10.419Z,0.00
2019-01-10T03:05:10.413Z,0.00
2019-01-10T03:06:10.399Z,0.00
2019-01-10T03:07:10.408Z,0.00
2019-01-10T03:08:10.373Z,0.00
2019-01-10T03:09:10.365Z,0.00
2019-01-10T03:10:10.350Z,0.00
2019-01-10T03:11:10.341Z,0.00
2019-01-10T03:12:10.353Z,0.00
2019-01-10T03:13:10.320Z,0.00
2019-01-10T03:14:10.308Z,0.00
2019-01-10T03:15:10.300Z,0.00
2019-01-10T03:16:10.285Z,0.00
2019-01-10T03:17:10.299Z,0.00
2019-01-10T03:18:10.262Z,0.00
2019-01-10T03:19:10.253Z,0.00
2019-01-10T03:20:10.242Z,0.00
2019-01-10T03:21:10.232Z,0.00
2019-01-10T03:22:10.254Z,0.00
2019-01-10T03:23:10.206Z,0.00
2019-01-10T03:24:10.196Z,0.00
2019-01-10T03:25:10.185Z,0.00
2019-01-10T03:26:10.174Z,0.00
2019-01-10T03:27:19.063Z,0.00
2019-01-10T03:28:10.152Z,0.00
2019-01-10T03:29:11.574Z,0.00
2019-01-10T03:30:10.131Z,0.00
2019-01-10T03:32:49.416Z,0.00
2019-01-10T03:33:49.381Z,0.00
2019-01-10T03:34:49.370Z,0.00
2019-01-10T03:35:49.361Z,0.00
2019-01-10T03:36:49.346Z,0.00
2019-01-10T03:37:49.367Z,0.00
2019-01-10T03:38:49.325Z,0.00
2019-01-10T03:39:49.315Z,0.00
2019-01-10T03:40:49.304Z,0.00
2019-01-10T03:41:49.290Z,0.00
2019-01-10T03:42:57.712Z,0.00
2019-01-10T03:43:49.269Z,0.00
2019-01-10T03:44:49.267Z,0.00
2019-01-10T03:45:49.246Z,0.00
2019-01-10T03:46:49.236Z,0.00
2019-01-10T03:47:49.225Z,0.00
2019-01-10T03:48:49.236Z,0.00
2019-01-10T03:49:49.202Z,0.00
2019-01-10T03:50:49.191Z,0.00
2019-01-10T03:51:49.178Z,0.00
2019-01-10T03:52:49.169Z,0.00
2019-01-10T03:53:49.181Z,0.00
2019-01-10T03:54:49.149Z,0.00
2019-01-10T03:55:49.138Z,0.00
2019-01-10T03:56:57.649Z,0.00
2019-01-10T03:57:49.112Z,0.00
2019-01-10T03:58:49.128Z,0.00
2019-01-10T03:59:49.092Z,0.00
2019-01-10T04:00:49.079Z,0.00
2019-01-10T04:01:49.067Z,0.00
2019-01-10T04:02:49.059Z,0.00
2019-01-10T04:03:49.067Z,0.00
2019-01-10T04:04:57.589Z,0.00
2019-01-10T04:05:49.025Z,0.00
2019-01-10T04:06:49.014Z,0.00
2019-01-10T04:07:49.002Z,0.00
2019-01-10T04:08:49.042Z,0.00
2019-01-10T04:09:48.980Z,0.00
2019-01-10T04:10:48.968Z,0.00
2019-01-10T04:11:48.962Z,0.00
2019-01-10T04:12:57.242Z,0.00
2019-01-10T04:13:57.277Z,0.00
2019-01-10T04:14:48.927Z,0.00
2019-01-10T04:15:48.917Z,0.00
2019-01-10T04:16:48.900Z,0.00
2019-01-10T04:17:48.891Z,0.00
2019-01-10T04:18:48.887Z,0.00
2019-01-10T04:19:48.891Z,0.00
2019-01-10T04:20:59.122Z,0.00
2019-01-10T04:21:48.849Z,0.00
2019-01-10T04:22:48.838Z,0.00
2019-01-10T04:23:48.828Z,0.00
2019-01-10T04:24:48.835Z,0.00
2019-01-10T04:25:48.803Z,0.00
2019-01-10T04:26:48.791Z,0.00
2019-01-10T04:27:48.799Z,0.00
2019-01-10T04:28:48.776Z,0.00
2019-01-10T04:29:48.781Z,0.00
2019-01-10T04:30:48.747Z,0.00
2019-01-10T04:31:48.739Z,0.00
2019-01-10T04:32:48.722Z,0.00
2019-01-10T04:33:48.712Z,0.00
2019-01-10T04:34:48.723Z,0.00
2019-01-10T04:35:48.693Z,0.00
2019-01-10T04:36:48.682Z,0.00
2019-01-10T04:37:48.667Z,0.00
2019-01-10T04:38:48.663Z,0.00
2019-01-10T04:39:48.670Z,0.00
2019-01-10T04:40:48.635Z,0.00
2019-01-10T04:41:48.622Z,0.00
2019-01-10T04:42:48.613Z,0.00
2019-01-10T04:43:48.604Z,0.00
2019-01-10T04:44:48.611Z,0.00
2019-01-10T04:45:48.579Z,0.00
2019-01-10T04:46:48.567Z,0.00
2019-01-10T04:47:48.557Z,0.00
2019-01-10T04:48:48.545Z,0.00
2019-01-10T04:49:48.583Z,0.00
2019-01-10T04:50:48.522Z,0.00
2019-01-10T04:51:48.514Z,0.00
2019-01-10T04:52:48.501Z,0.00
2019-01-10T04:53:48.489Z,0.00
2019-01-10T04:54:48.477Z,0.00
2019-01-10T04:55:48.488Z,0.00
2019-01-10T04:56:48.455Z,0.00
2019-01-10T04:57:48.443Z,0.00
2019-01-10T04:58:48.433Z,0.00
2019-01-10T04:59:48.425Z,0.00
2019-01-10T05:00:48.432Z,0.00
2019-01-10T05:01:48.403Z,0.00
2019-01-10T05:02:48.387Z,0.00
2019-01-10T05:03:48.376Z,0.00
2019-01-10T05:04:48.368Z,0.00
2019-01-10T05:05:48.379Z,0.00
2019-01-10T05:06:48.351Z,0.00
2019-01-10T05:07:48.343Z,0.00
2019-01-10T05:08:48.321Z,0.00
2019-01-10T05:09:48.312Z,0.00
2019-01-10T05:10:48.320Z,0.00
2019-01-10T05:11:48.288Z,0.00
2019-01-10T05:12:48.278Z,0.00
2019-01-10T05:13:48.265Z,0.00
2019-01-10T05:14:48.256Z,0.00
2019-01-10T05:15:48.267Z,0.00
2019-01-10T05:16:48.231Z,0.00
2019-01-10T05:17:48.221Z,0.00
2019-01-10T05:18:48.212Z,0.00
2019-01-10T05:19:48.205Z,0.00
2019-01-10T05:20:48.218Z,0.00
2019-01-10T05:21:48.177Z,0.00
2019-01-10T05:22:48.167Z,0.00
2019-01-10T05:23:48.154Z,0.00
2019-01-10T05:24:48.143Z,0.00
2019-01-10T05:25:48.131Z,0.00
2019-01-10T05:26:48.142Z,0.00
2019-01-10T05:27:48.114Z,0.00
2019-01-10T05:28:48.098Z,0.00
2019-01-10T05:29:48.088Z,0.00
2019-01-10T05:30:48.079Z,0.00
2019-01-10T05:31:48.088Z,0.00
2019-01-10T05:32:48.058Z,0.00
2019-01-10T05:33:48.043Z,0.00
2019-01-10T05:34:48.031Z,0.00
2019-01-10T05:35:48.020Z,0.00
2019-01-10T05:36:48.032Z,0.00
2019-01-10T05:37:48.008Z,0.00
2019-01-10T05:38:47.995Z,0.00
2019-01-10T05:39:48.095Z,0.00
2019-01-10T05:40:47.968Z,0.00
2019-01-10T05:41:47.983Z,0.00
2019-01-10T05:42:57.532Z,0.00
2019-01-10T05:43:47.934Z,0.00
2019-01-10T05:44:47.924Z,0.00
2019-01-10T05:45:47.923Z,0.00
2019-01-10T05:46:48.685Z,0.00
2019-01-10T05:47:47.887Z,0.00
2019-01-10T05:48:47.877Z,0.00
2019-01-10T05:49:47.866Z,0.00
2019-01-10T05:50:47.858Z,0.00
2019-01-10T05:51:47.865Z,0.00
2019-01-10T05:52:47.839Z,0.00
2019-01-10T05:53:47.822Z,0.00
2019-01-10T05:54:47.810Z,0.00
2019-01-10T05:55:47.801Z,0.00
2019-01-10T05:56:47.839Z,0.00
2019-01-10T05:57:57.449Z,0.00
2019-01-10T05:58:47.765Z,0.00
2019-01-10T05:59:47.757Z,0.00
2019-01-10T06:00:47.742Z,0.00
2019-01-10T06:01:47.733Z,0.00
2019-01-10T06:02:47.742Z,0.00
2019-01-10T06:03:53.134Z,0.00
2019-01-10T06:04:47.701Z,0.00
2019-01-10T06:05:47.726Z,0.00
2019-01-10T06:06:47.676Z,0.00
2019-01-10T06:07:47.688Z,0.00
2019-01-10T06:08:47.653Z,0.00
2019-01-10T06:09:47.641Z,0.00
2019-01-10T06:10:55.936Z,0.00
2019-01-10T06:11:47.685Z,0.00
2019-01-10T06:12:47.632Z,0.00
2019-01-10T06:13:47.598Z,0.00
2019-01-10T06:14:47.712Z,0.00
2019-01-10T06:15:47.576Z,0.00
2019-01-10T06:16:47.566Z,0.00
2019-01-10T06:17:47.577Z,0.00
2019-01-10T06:18:47.545Z,0.00
2019-01-10T06:19:47.529Z,0.00
2019-01-10T06:20:47.520Z,0.00
2019-01-10T06:21:47.507Z,0.00
2019-01-10T06:22:47.519Z,0.00
2019-01-10T06:23:47.486Z,0.00
2019-01-10T06:24:55.837Z,0.00
2019-01-10T06:25:47.463Z,0.00
2019-01-10T06:26:47.452Z,0.00
2019-01-10T06:27:47.471Z,0.00
2019-01-10T06:28:47.436Z,0.00
2019-01-10T06:29:47.424Z,0.00
2019-01-10T06:30:47.419Z,0.00
2019-01-10T06:31:47.395Z,0.00
2019-01-10T06:32:47.390Z,0.00
2019-01-10T06:33:55.882Z,0.00
2019-01-10T06:34:47.367Z,0.00
2019-01-10T06:35:47.354Z,0.00
2019-01-10T06:36:47.341Z,0.00
2019-01-10T06:37:47.334Z,0.00
2019-01-10T06:38:47.346Z,0.00
2019-01-10T06:39:47.309Z,0.00
2019-01-10T06:40:47.338Z,0.00
2019-01-10T06:41:47.295Z,0.00
2019-01-10T06:42:47.272Z,0.00
2019-01-10T06:43:47.283Z,0.00
2019-01-10T06:44:47.253Z,0.00
2019-01-10T06:45:47.268Z,0.00
2019-01-10T06:46:47.231Z,0.00
2019-01-10T06:47:47.217Z,0.00
2019-01-10T06:48:47.227Z,0.00
2019-01-10T06:49:47.194Z,0.00
2019-01-10T06:50:47.432Z,0.00
2019-01-10T06:51:47.176Z,0.00
2019-01-10T06:52:55.498Z,0.00
2019-01-10T06:53:47.173Z,0.00
2019-01-10T06:54:56.302Z,0.00
2019-01-10T06:55:47.131Z,0.00
2019-01-10T06:56:47.118Z,0.00
2019-01-10T06:57:47.106Z,0.00
2019-01-10T06:58:47.115Z,0.00
2019-01-10T06:59:47.085Z,0.00
2019-01-10T07:00:47.071Z,0.00
2019-01-10T07:01:47.059Z,0.00
2019-01-10T07:02:47.049Z,0.00
2019-01-10T07:03:47.059Z,0.00
2019-01-10T07:04:47.030Z,0.00
2019-01-10T07:05:47.041Z,0.00
2019-01-10T07:06:47.004Z,0.00
2019-01-10T07:07:55.807Z,4.00
2019-01-10T07:08:47.007Z,4.00
2019-01-10T07:09:46.970Z,0.00
2019-01-10T07:10:46.962Z,0.00
2019-01-10T07:11:46.948Z,4.00
2019-01-10T07:12:46.943Z,4.00
2019-01-10T07:13:47.066Z,4.00
2019-01-10T07:14:53.551Z,0.00
2019-01-10T07:15:46.906Z,4.00
2019-01-10T07:16:53.448Z,4.00
2019-01-10T07:17:46.897Z,8.00
2019-01-10T07:18:46.876Z,4.00
2019-01-10T07:19:46.880Z,8.00
2019-01-10T07:20:46.848Z,4.00
2019-01-10T07:21:46.839Z,8.00
2019-01-10T07:22:46.826Z,8.00
2019-01-10T07:23:46.814Z,8.00
2019-01-10T07:24:46.827Z,8.00
2019-01-10T07:25:46.803Z,8.00
2019-01-10T07:26:46.786Z,12.00
2019-01-10T07:27:46.780Z,12.00
2019-01-10T07:28:46.762Z,16.00
2019-01-10T07:29:46.771Z,16.00
2019-01-10T07:30:46.745Z,24.00
2019-01-10T07:31:46.726Z,24.00
2019-01-10T07:32:46.714Z,28.00
2019-01-10T07:33:46.704Z,28.00
2019-01-10T07:34:46.723Z,32.00
2019-01-10T07:35:46.681Z,32.00
2019-01-10T07:36:46.669Z,36.00
2019-01-10T07:37:46.658Z,40.00
2019-01-10T07:38:46.649Z,40.00
2019-01-10T07:39:46.716Z,44.00
2019-01-10T07:40:46.627Z,48.00
2019-01-10T07:41:46.614Z,48.00
2019-01-10T07:42:46.607Z,48.00
2019-01-10T07:43:46.594Z,52.00
2019-01-10T07:44:46.612Z,56.00
2019-01-10T07:45:46.570Z,56.00
2019-01-10T07:46:46.558Z,60.00
2019-01-10T07:47:46.546Z,60.00
2019-01-10T07:48:46.535Z,60.00
2019-01-10T07:49:46.828Z,64.00
2019-01-10T07:50:46.517Z,64.00
2019-01-10T07:51:46.501Z,68.00
2019-01-10T07:52:46.492Z,68.00
2019-01-10T07:53:46.483Z,72.00
2019-01-10T07:54:46.468Z,72.00
2019-01-10T07:55:46.479Z,76.00
2019-01-10T07:56:46.448Z,80.00
2019-01-10T07:57:46.436Z,84.00
2019-01-10T07:58:46.424Z,92.00
2019-01-10T07:59:46.413Z,100.00
2019-01-10T08:00:46.425Z,104.00
2019-01-10T08:01:46.399Z,112.00
2019-01-10T08:02:46.388Z,116.00
2019-01-10T08:03:46.367Z,120.00
2019-01-10T08:04:46.361Z,124.00
2019-01-10T08:05:46.384Z,132.00
2019-01-10T08:06:46.336Z,136.00
2019-01-10T08:07:46.327Z,140.00
2019-01-10T08:08:46.318Z,144.00
2019-01-10T08:09:46.302Z,152.00
2019-01-10T08:10:46.313Z,160.00
2019-01-10T08:11:46.279Z,164.00
2019-01-10T08:12:46.267Z,168.00
2019-01-10T08:13:46.256Z,168.00
2019-01-10T08:14:46.247Z,168.00
2019-01-10T08:15:46.262Z,172.00
2019-01-10T08:16:46.222Z,180.00
2019-01-10T08:17:46.215Z,184.00
2019-01-10T08:18:46.201Z,184.00
2019-01-10T08:19:46.189Z,184.00
2019-01-10T08:20:46.226Z,184.00
2019-01-10T08:21:46.640Z,196.00
2019-01-10T08:22:46.155Z,200.00
2019-01-10T08:23:46.146Z,208.00
2019-01-10T08:24:46.136Z,204.00
2019-01-10T08:25:46.144Z,200.00
2019-01-10T08:26:46.110Z,200.00
2019-01-10T08:27:46.101Z,204.00
2019-01-10T08:28:46.089Z,204.00
2019-01-10T08:29:46.085Z,208.00
2019-01-10T08:30:46.109Z,212.00
2019-01-10T08:31:46.059Z,224.00
2019-01-10T08:32:46.047Z,240.00
2019-01-10T08:33:46.033Z,256.00
2019-01-10T08:34:46.028Z,276.00
2019-01-10T08:35:46.014Z,292.00
2019-01-10T08:36:46.021Z,304.00
2019-01-10T08:37:45.991Z,312.00
2019-01-10T08:38:45.978Z,316.00
2019-01-10T08:39:45.967Z,328.00
2019-01-10T08:40:45.955Z,336.00
2019-01-10T08:41:45.966Z,344.00
2019-01-10T08:42:45.938Z,352.00
2019-01-10T08:43:45.923Z,352.00
2019-01-10T08:44:45.917Z,372.00
2019-01-10T08:45:45.902Z,388.00
2019-01-10T08:46:45.911Z,404.00
2019-01-10T08:47:45.880Z,416.00
2019-01-10T08:48:45.870Z,428.00
2019-01-10T08:49:45.855Z,448.00
2019-01-10T08:50:45.844Z,468.00
2019-01-10T08:51:45.859Z,496.00
2019-01-10T08:52:45.824Z,508.00
2019-01-10T08:53:53.870Z,520.00
2019-01-10T08:54:45.808Z,536.00
2019-01-10T08:55:45.793Z,560.00
2019-01-10T08:56:45.800Z,588.00
2019-01-10T08:57:45.767Z,624.00
2019-01-10T08:58:45.758Z,664.00
2019-01-10T08:59:45.747Z,692.00
2019-01-10T09:00:45.735Z,712.00
2019-01-10T09:01:45.762Z,716.00
2019-01-10T09:02:45.711Z,720.00
2019-01-10T09:03:45.702Z,732.00
2019-01-10T09:04:45.689Z,744.00
2019-01-10T09:05:45.680Z,752.00
2019-01-10T09:06:45.667Z,776.00
2019-01-10T09:07:45.723Z,796.00
2019-01-10T09:08:45.643Z,820.00
2019-01-10T09:09:45.633Z,836.00
2019-01-10T09:10:45.622Z,848.00
2019-01-10T09:11:45.630Z,876.00
2019-01-10T09:12:45.628Z,920.00
2019-01-10T09:13:45.596Z,984.00
2019-01-10T09:14:45.575Z,1016.00
2019-01-10T09:15:45.568Z,1032.00
2019-01-10T09:16:45.556Z,1080.00
2019-01-10T09:17:45.565Z,1124.00
2019-01-10T09:18:45.532Z,1132.00
2019-01-10T09:19:45.520Z,1136.00
2019-01-10T09:20:45.512Z,1156.00
2019-01-10T09:21:45.501Z,1208.00
2019-01-10T09:22:45.513Z,1276.00
2019-01-10T09:23:45.475Z,1312.00
2019-01-10T09:24:45.465Z,1320.00
2019-01-10T09:25:45.457Z,1276.00
2019-01-10T09:26:45.443Z,1272.00
2019-01-10T09:27:45.453Z,1260.00
2019-01-10T09:28:45.429Z,1288.00
2019-01-10T09:29:45.410Z,1348.00
2019-01-10T09:30:45.398Z,1368.00
2019-01-10T09:31:45.387Z,1420.00
2019-01-10T09:32:45.399Z,1440.00
2019-01-10T09:33:45.366Z,1464.00
2019-01-10T09:34:45.353Z,1516.00
2019-01-10T09:35:45.344Z,1532.00
2019-01-10T09:36:45.330Z,1508.00
2019-01-10T09:37:45.345Z,1448.00
2019-01-10T09:38:45.311Z,1372.00
2019-01-10T09:39:45.298Z,1312.00
2019-01-10T09:40:45.287Z,1304.00
2019-01-10T09:41:45.276Z,1316.00
2019-01-10T09:42:45.303Z,1276.00
2019-01-10T09:43:45.252Z,1268.00
2019-01-10T09:44:45.241Z,1264.00
2019-01-10T09:45:45.231Z,1212.00
2019-01-10T09:46:45.233Z,1192.00
2019-01-10T09:47:45.208Z,1188.00
2019-01-10T09:48:45.218Z,1208.00
2019-01-10T09:49:45.187Z,1200.00
2019-01-10T09:50:45.175Z,984.00
2019-01-10T09:51:45.165Z,1016.00
2019-01-10T09:52:45.153Z,1148.00
2019-01-10T09:53:45.167Z,1156.00
2019-01-10T09:54:45.133Z,1324.00
2019-01-10T09:55:45.119Z,1264.00
2019-01-10T09:56:45.109Z,1368.00
2019-01-10T09:57:45.101Z,1376.00
2019-01-10T09:58:45.109Z,1408.00
2019-01-10T09:59:45.074Z,1380.00
2019-01-10T10:00:45.064Z,1340.00
2019-01-10T10:01:45.053Z,1348.00
2019-01-10T10:02:45.041Z,1676.00
2019-01-10T10:03:45.084Z,1936.00
2019-01-10T10:04:45.022Z,2216.00
2019-01-10T10:05:45.007Z,2376.00
2019-01-10T10:06:44.996Z,2320.00
2019-01-10T10:07:44.987Z,2184.00
2019-01-10T10:08:45.000Z,2232.00
2019-01-10T10:09:44.973Z,2292.00
2019-01-10T10:10:44.952Z,2364.00
2019-01-10T10:11:44.944Z,2444.00
2019-01-10T10:12:44.931Z,2432.00
2019-01-10T10:13:45.062Z,2404.00
2019-01-10T10:14:44.908Z,2252.00
2019-01-10T10:15:52.299Z,2312.00
2019-01-10T10:16:44.890Z,2364.00
2019-01-10T10:17:44.875Z,2296.00
2019-01-10T10:18:44.863Z,2284.00
2019-01-10T10:19:44.872Z,2232.00
2019-01-10T10:20:44.846Z,1992.00
2019-01-10T10:21:44.840Z,1880.00
2019-01-10T10:22:44.819Z,2004.00
2019-01-10T10:23:44.807Z,2152.00
2019-01-10T10:24:44.819Z,2160.00
2019-01-10T10:25:44.790Z,2364.00
2019-01-10T10:26:44.774Z,2448.00
2019-01-10T10:27:44.765Z,2516.00
2019-01-10T10:28:44.753Z,2468.00
2019-01-10T10:29:44.769Z,2576.00
2019-01-10T10:30:44.728Z,2748.00
2019-01-10T10:31:44.721Z,2920.00
2019-01-10T10:32:44.706Z,3032.00
2019-01-10T10:33:44.695Z,3172.00
2019-01-10T10:34:44.704Z,3248.00
2019-01-10T10:35:44.672Z,3212.00
2019-01-10T10:36:44.661Z,3148.00
2019-01-10T10:37:44.651Z,3208.00
2019-01-10T10:38:44.642Z,3064.00
2019-01-10T10:39:44.654Z,3152.00
2019-01-10T10:40:44.617Z,3284.00
2019-01-10T10:41:44.607Z,3456.00
2019-01-10T10:42:44.595Z,3212.00
2019-01-10T10:43:44.585Z,2892.00
2019-01-10T10:44:44.598Z,3052.00
2019-01-10T10:45:44.562Z,3076.00
2019-01-10T10:46:44.552Z,3088.00
2019-01-10T10:47:44.541Z,2920.00
2019-01-10T10:48:44.532Z,2468.00
2019-01-10T10:49:44.555Z,2176.00
2019-01-10T10:50:44.506Z,2004.00
2019-01-10T10:51:44.495Z,2072.00
2019-01-10T10:52:44.487Z,2300.00
2019-01-10T10:53:44.475Z,2544.00
2019-01-10T10:54:44.463Z,2712.00
2019-01-10T10:55:44.474Z,2700.00
2019-01-10T10:56:44.446Z,2464.00
2019-01-10T10:57:44.429Z,1872.00
2019-01-10T10:58:44.421Z,1392.00
2019-01-10T10:59:44.409Z,1256.00
2019-01-10T11:00:44.423Z,1244.00
2019-01-10T11:01:44.384Z,1088.00
2019-01-10T11:02:44.377Z,1080.00
2019-01-10T11:03:44.366Z,1156.00
2019-01-10T11:04:44.352Z,1152.00
2019-01-10T11:05:44.383Z,1228.00
2019-01-10T11:06:44.329Z,1112.00
2019-01-10T11:07:44.321Z,1404.00
2019-01-10T11:08:44.663Z,1764.00
2019-01-10T11:09:44.296Z,1744.00
2019-01-10T11:10:44.285Z,1772.00
2019-01-10T11:11:44.294Z,1640.00
2019-01-10T11:12:44.264Z,1456.00
2019-01-10T11:13:44.253Z,1224.00
2019-01-10T11:14:48.207Z,1192.00
2019-01-10T11:15:44.232Z,1144.00
2019-01-10T11:16:44.240Z,1468.00
2019-01-10T11:17:44.211Z,1424.00
2019-01-10T11:18:44.207Z,1476.00
2019-01-10T11:19:44.188Z,1616.00
2019-01-10T11:20:44.175Z,1784.00
2019-01-10T11:21:44.188Z,1728.00
2019-01-10T11:22:44.154Z,1428.00
2019-01-10T11:23:44.143Z,1360.00
2019-01-10T11:24:44.138Z,1420.00
2019-01-10T11:25:44.120Z,1600.00
2019-01-10T11:26:44.133Z,1616.00
2019-01-10T11:27:44.097Z,1880.00
2019-01-10T11:28:44.093Z,2180.00
2019-01-10T11:29:44.078Z,2616.00
2019-01-10T11:30:44.067Z,2596.00
2019-01-10T11:31:44.082Z,2856.00
2019-01-10T11:32:44.042Z,2896.00
2019-01-10T11:33:44.030Z,3308.00
2019-01-10T11:34:44.019Z,3688.00
2019-01-10T11:35:44.008Z,3764.00
2019-01-10T11:36:44.020Z,3240.00
2019-01-10T11:37:43.986Z,3484.00
2019-01-10T11:38:45.289Z,3212.00
2019-01-10T11:39:43.967Z,2896.00
2019-01-10T11:40:43.954Z,3660.00
2019-01-10T11:41:43.967Z,4176.00
2019-01-10T11:42:43.930Z,4420.00
2019-01-10T11:43:43.920Z,4236.00
2019-01-10T11:44:43.911Z,3740.00
2019-01-10T11:45:43.897Z,3732.00
2019-01-10T11:46:43.922Z,3960.00
2019-01-10T11:47:43.879Z,3900.00
2019-01-10T11:48:43.865Z,3696.00
2019-01-10T11:49:43.854Z,3644.00
2019-01-10T11:50:43.843Z,3404.00
2019-01-10T11:51:43.836Z,2844.00
2019-01-10T11:52:43.842Z,2496.00
2019-01-10T11:53:43.808Z,2376.00
2019-01-10T11:54:43.799Z,1728.00
2019-01-10T11:55:43.786Z,1620.00
2019-01-10T11:56:43.775Z,1912.00
2019-01-10T11:57:43.788Z,2276.00
2019-01-10T11:58:43.754Z,2020.00
2019-01-10T11:59:43.742Z,2380.00
2019-01-10T12:00:43.731Z,3152.00
2019-01-10T12:01:43.719Z,4740.00
2019-01-10T12:02:43.733Z,4212.00
2019-01-10T12:03:43.709Z,3576.00
2019-01-10T12:04:43.687Z,5008.00
2019-01-10T12:05:47.857Z,4280.00
2019-01-10T12:06:43.668Z,3560.00
2019-01-10T12:07:43.678Z,3668.00
2019-01-10T12:08:43.642Z,4356.00
2019-01-10T12:09:43.631Z,4172.00
2019-01-10T12:10:43.622Z,4776.00
2019-01-10T12:11:43.610Z,6488.00
2019-01-10T12:12:43.638Z,5280.00
2019-01-10T12:13:43.586Z,5452.00
2019-01-10T12:14:43.575Z,5176.00
2019-01-10T12:15:43.571Z,4708.00
2019-01-10T12:16:43.553Z,4252.00
2019-01-10T12:17:43.542Z,4584.00
2019-01-10T12:18:43.555Z,3200.00
2019-01-10T12:19:43.520Z,3708.00
2019-01-10T12:20:43.511Z,3936.00
2019-01-10T12:21:43.500Z,3372.00
2019-01-10T12:22:43.487Z,3472.00
2019-01-10T12:23:43.506Z,3872.00
2019-01-10T12:24:43.470Z,3884.00
2019-01-10T12:25:43.453Z,3956.00
2019-01-10T12:26:43.442Z,3928.00
2019-01-10T12:27:43.434Z,3740.00
2019-01-10T12:28:43.444Z,3532.00
2019-01-10T12:29:43.410Z,3504.00
2019-01-10T12:30:43.397Z,3668.00
2019-01-10T12:31:43.387Z,3980.00
2019-01-10T12:32:43.377Z,4076.00
2019-01-10T12:33:43.388Z,3608.00
2019-01-10T12:34:43.356Z,3292.00
2019-01-10T12:35:43.343Z,3128.00
2019-01-10T12:36:43.331Z,2976.00
2019-01-10T12:37:43.320Z,2900.00
2019-01-10T12:38:43.331Z,3208.00
2019-01-10T12:39:43.301Z,3268.00
2019-01-10T12:40:43.287Z,3180.00
2019-01-10T12:41:43.276Z,3376.00
2019-01-10T12:42:43.264Z,3132.00
2019-01-10T12:43:43.275Z,3040.00
2019-01-10T12:44:43.243Z,2872.00
2019-01-10T12:45:43.233Z,3156.00
2019-01-10T12:46:43.220Z,3024.00
2019-01-10T12:47:43.209Z,3012.00
2019-01-10T12:48:43.239Z,3332.00
2019-01-10T12:49:43.188Z,3796.00
2019-01-10T12:50:43.186Z,4048.00
2019-01-10T12:51:43.166Z,4052.00